sensor_id;sensor_type;location;lat;lon;timestamp;pressure;altitude;pressure_sealevel;temperature;humidity
163;BME280;3946;48.958;8.284;2023-04-21T00:01:39;100148.13;;;3.65;100.00
163;BME280;3946;48.958;8.284;2023-04-21T00:04:25;100152.00;;;3.54;100.00
163;BME280;3946;48.958;8.284;2023-04-21T00:07:11;100149.06;;;3.84;100.00
163;BME280;3946;48.958;8.284;2023-04-21T00:09:57;100136.38;;;3.81;100.00
163;BME280;3946;48.958;8.284;2023-04-21T00:12:42;100149.19;;;4.03;100.00
163;BME280;3946;48.958;8.284;2023-04-21T00:15:27;100138.22;;;4.00;100.00
163;BME280;3946;48.958;8.284;2023-04-21T00:18:12;100143.13;;;3.84;100.00
163;BME280;3946;48.958;8.284;2023-04-21T00:20:58;100142.94;;;3.67;100.00
163;BME280;3946;48.958;8.284;2023-04-21T00:23:43;100146.16;;;3.50;100.00
163;BME280;3946;48.958;8.284;2023-04-21T00:26:30;100148.41;;;3.36;100.00
163;BME280;3946;48.958;8.284;2023-04-21T00:29:15;100149.69;;;3.24;100.00
163;BME280;3946;48.958;8.284;2023-04-21T00:32:00;100157.75;;;3.13;100.00
163;BME280;3946;48.958;8.284;2023-04-21T00:34:48;100138.09;;;3.14;100.00
163;BME280;3946;48.958;8.284;2023-04-21T00:37:34;100134.06;;;3.54;100.00
163;BME280;3946;48.958;8.284;2023-04-21T00:40:21;100121.44;;;3.71;100.00
163;BME280;3946;48.958;8.284;2023-04-21T00:43:06;100121.66;;;3.43;100.00
163;BME280;3946;48.958;8.284;2023-04-21T00:45:51;100127.09;;;3.57;100.00
163;BME280;3946;48.958;8.284;2023-04-21T00:48:35;100122.34;;;3.70;100.00
163;BME280;3946;48.958;8.284;2023-04-21T00:51:20;100124.06;;;3.69;100.00
163;BME280;3946;48.958;8.284;2023-04-21T00:54:07;100123.25;;;3.24;100.00
163;BME280;3946;48.958;8.284;2023-04-21T00:56:53;100123.47;;;3.17;100.00
163;BME280;3946;48.958;8.284;2023-04-21T00:59:39;100122.31;;;3.03;100.00
163;BME280;3946;48.958;8.284;2023-04-21T01:02:24;100115.97;;;2.90;100.00
163;BME280;3946;48.958;8.284;2023-04-21T01:05:11;100110.91;;;3.11;100.00
163;BME280;3946;48.958;8.284;2023-04-21T01:07:55;100119.31;;;2.92;100.00
163;BME280;3946;48.958;8.284;2023-04-21T01:10:42;100119.25;;;2.93;100.00
163;BME280;3946;48.958;8.284;2023-04-21T01:13:28;100115.31;;;2.85;100.00
163;BME280;3946;48.958;8.284;2023-04-21T01:16:14;100117.16;;;3.04;100.00
163;BME280;3946;48.958;8.284;2023-04-21T01:19:00;100112.66;;;2.88;100.00
163;BME280;3946;48.958;8.284;2023-04-21T01:21:49;100110.69;;;2.71;100.00
163;BME280;3946;48.958;8.284;2023-04-21T01:24:34;100109.22;;;2.64;100.00
163;BME280;3946;48.958;8.284;2023-04-21T01:27:20;100117.97;;;2.58;100.00
163;BME280;3946;48.958;8.284;2023-04-21T01:30:06;100115.75;;;2.47;100.00
163;BME280;3946;48.958;8.284;2023-04-21T01:32:52;100120.22;;;2.42;100.00
163;BME280;3946;48.958;8.284;2023-04-21T01:35:37;100121.88;;;2.43;100.00
163;BME280;3946;48.958;8.284;2023-04-21T01:38:23;100116.78;;;2.43;100.00
163;BME280;3946;48.958;8.284;2023-04-21T01:41:08;100121.69;;;2.48;100.00
163;BME280;3946;48.958;8.284;2023-04-21T01:43:53;100122.53;;;2.49;100.00
163;BME280;3946;48.958;8.284;2023-04-21T01:46:41;100118.84;;;2.32;100.00
163;BME280;3946;48.958;8.284;2023-04-21T01:49:26;100123.56;;;2.18;100.00
163;BME280;3946;48.958;8.284;2023-04-21T01:52:11;100125.16;;;2.22;100.00
163;BME280;3946;48.958;8.284;2023-04-21T01:54:58;100129.53;;;2.19;100.00
163;BME280;3946;48.958;8.284;2023-04-21T01:57:43;100130.44;;;2.16;100.00
163;BME280;3946;48.958;8.284;2023-04-21T02:00:28;100135.03;;;2.06;100.00
163;BME280;3946;48.958;8.284;2023-04-21T02:03:14;100143.13;;;2.19;100.00
163;BME280;3946;48.958;8.284;2023-04-21T02:05:59;100138.88;;;2.20;100.00
163;BME280;3946;48.958;8.284;2023-04-21T02:08:44;100137.59;;;2.58;100.00
163;BME280;3946;48.958;8.284;2023-04-21T02:11:30;100144.72;;;2.48;100.00
163;BME280;3946;48.958;8.284;2023-04-21T02:14:15;100147.09;;;2.28;100.00
163;BME280;3946;48.958;8.284;2023-04-21T02:17:00;100147.72;;;2.09;100.00
163;BME280;3946;48.958;8.284;2023-04-21T02:19:46;100150.47;;;2.03;100.00
163;BME280;3946;48.958;8.284;2023-04-21T02:22:31;100147.59;;;2.39;100.00
163;BME280;3946;48.958;8.284;2023-04-21T02:25:16;100148.75;;;2.04;100.00
163;BME280;3946;48.958;8.284;2023-04-21T02:28:04;100155.19;;;1.89;100.00
163;BME280;3946;48.958;8.284;2023-04-21T02:30:49;100154.78;;;1.75;100.00
163;BME280;3946;48.958;8.284;2023-04-21T02:33:35;100153.78;;;1.79;100.00
163;BME280;3946;48.958;8.284;2023-04-21T02:36:20;100145.25;;;2.06;100.00
163;BME280;3946;48.958;8.284;2023-04-21T02:39:05;100151.22;;;2.07;100.00
163;BME280;3946;48.958;8.284;2023-04-21T02:41:50;100148.94;;;1.98;100.00
163;BME280;3946;48.958;8.284;2023-04-21T02:44:37;100153.50;;;2.15;100.00
163;BME280;3946;48.958;8.284;2023-04-21T02:47:22;100152.41;;;1.95;100.00
163;BME280;3946;48.958;8.284;2023-04-21T02:50:07;100155.41;;;1.82;100.00
163;BME280;3946;48.958;8.284;2023-04-21T02:52:52;100154.38;;;1.87;100.00
163;BME280;3946;48.958;8.284;2023-04-21T02:55:37;100150.34;;;1.80;100.00
163;BME280;3946;48.958;8.284;2023-04-21T02:58:22;100154.47;;;1.84;100.00
163;BME280;3946;48.958;8.284;2023-04-21T03:01:08;100158.28;;;1.71;100.00
163;BME280;3946;48.958;8.284;2023-04-21T03:03:53;100157.34;;;1.75;100.00
163;BME280;3946;48.958;8.284;2023-04-21T03:06:38;100163.28;;;1.75;100.00
163;BME280;3946;48.958;8.284;2023-04-21T03:09:23;100158.44;;;1.66;100.00
163;BME280;3946;48.958;8.284;2023-04-21T03:12:10;100147.38;;;1.66;100.00
163;BME280;3946;48.958;8.284;2023-04-21T03:14:55;100150.03;;;1.63;100.00
163;BME280;3946;48.958;8.284;2023-04-21T03:17:41;100142.31;;;2.19;100.00
163;BME280;3946;48.958;8.284;2023-04-21T03:20:26;100133.97;;;2.12;100.00
163;BME280;3946;48.958;8.284;2023-04-21T03:23:11;100137.03;;;2.23;100.00
163;BME280;3946;48.958;8.284;2023-04-21T03:25:56;100126.78;;;1.98;100.00
163;BME280;3946;48.958;8.284;2023-04-21T03:28:41;100144.47;;;1.78;100.00
163;BME280;3946;48.958;8.284;2023-04-21T03:31:26;100148.16;;;1.68;100.00
163;BME280;3946;48.958;8.284;2023-04-21T03:34:12;100145.41;;;1.75;100.00
163;BME280;3946;48.958;8.284;2023-04-21T03:36:57;100137.97;;;1.68;100.00
163;BME280;3946;48.958;8.284;2023-04-21T03:39:42;100127.69;;;1.96;100.00
163;BME280;3946;48.958;8.284;2023-04-21T03:42:26;100133.66;;;1.96;100.00
163;BME280;3946;48.958;8.284;2023-04-21T03:45:13;100136.59;;;1.84;100.00
163;BME280;3946;48.958;8.284;2023-04-21T03:47:58;100132.47;;;1.80;100.00
163;BME280;3946;48.958;8.284;2023-04-21T03:50:45;100132.22;;;1.88;100.00
163;BME280;3946;48.958;8.284;2023-04-21T03:53:30;100145.00;;;1.61;100.00
163;BME280;3946;48.958;8.284;2023-04-21T03:56:14;100144.41;;;1.52;100.00
163;BME280;3946;48.958;8.284;2023-04-21T03:58:59;100125.28;;;1.65;100.00
163;BME280;3946;48.958;8.284;2023-04-21T04:01:44;100127.88;;;1.91;100.00
163;BME280;3946;48.958;8.284;2023-04-21T04:04:29;100127.03;;;1.91;100.00
163;BME280;3946;48.958;8.284;2023-04-21T04:07:16;100120.16;;;1.93;100.00
163;BME280;3946;48.958;8.284;2023-04-21T04:10:02;100107.81;;;2.05;100.00
163;BME280;3946;48.958;8.284;2023-04-21T04:12:47;100110.09;;;1.88;100.00
163;BME280;3946;48.958;8.284;2023-04-21T04:15:32;100107.03;;;1.77;100.00
163;BME280;3946;48.958;8.284;2023-04-21T04:18:17;100109.81;;;1.69;100.00
163;BME280;3946;48.958;8.284;2023-04-21T04:21:04;100111.19;;;1.53;100.00
163;BME280;3946;48.958;8.284;2023-04-21T04:23:50;100122.28;;;1.52;100.00
163;BME280;3946;48.958;8.284;2023-04-21T04:26:36;100132.34;;;1.57;100.00
163;BME280;3946;48.958;8.284;2023-04-21T04:29:22;100136.78;;;1.50;100.00
163;BME280;3946;48.958;8.284;2023-04-21T04:32:08;100120.59;;;1.51;100.00
163;BME280;3946;48.958;8.284;2023-04-21T04:34:53;100104.84;;;1.93;100.00
163;BME280;3946;48.958;8.284;2023-04-21T04:37:39;100100.38;;;1.98;100.00
163;BME280;3946;48.958;8.284;2023-04-21T04:40:25;100115.25;;;2.11;100.00
163;BME280;3946;48.958;8.284;2023-04-21T04:43:11;100127.22;;;2.11;100.00
163;BME280;3946;48.958;8.284;2023-04-21T04:45:56;100128.94;;;2.10;100.00
163;BME280;3946;48.958;8.284;2023-04-21T04:48:41;100127.94;;;2.15;100.00
163;BME280;3946;48.958;8.284;2023-04-21T04:51:26;100140.22;;;2.30;100.00
163;BME280;3946;48.958;8.284;2023-04-21T04:54:11;100139.78;;;2.17;100.00
163;BME280;3946;48.958;8.284;2023-04-21T04:56:58;100136.94;;;2.26;100.00
163;BME280;3946;48.958;8.284;2023-04-21T04:59:43;100142.41;;;2.16;100.00
163;BME280;3946;48.958;8.284;2023-04-21T05:02:29;100143.09;;;2.21;100.00
163;BME280;3946;48.958;8.284;2023-04-21T05:05:14;100144.66;;;1.98;100.00
163;BME280;3946;48.958;8.284;2023-04-21T05:07:59;100150.50;;;2.02;100.00
163;BME280;3946;48.958;8.284;2023-04-21T05:10:44;100160.59;;;2.06;100.00
163;BME280;3946;48.958;8.284;2023-04-21T05:13:30;100158.97;;;2.04;100.00
163;BME280;3946;48.958;8.284;2023-04-21T05:16:15;100154.19;;;2.20;100.00
163;BME280;3946;48.958;8.284;2023-04-21T05:19:00;100160.13;;;2.20;100.00
163;BME280;3946;48.958;8.284;2023-04-21T05:21:45;100163.44;;;2.24;100.00
163;BME280;3946;48.958;8.284;2023-04-21T05:24:30;100174.94;;;2.37;100.00
163;BME280;3946;48.958;8.284;2023-04-21T05:27:15;100175.63;;;2.42;100.00
163;BME280;3946;48.958;8.284;2023-04-21T05:30:01;100167.94;;;2.67;100.00
163;BME280;3946;48.958;8.284;2023-04-21T05:32:47;100169.94;;;2.59;100.00
163;BME280;3946;48.958;8.284;2023-04-21T05:35:32;100167.16;;;2.65;100.00
163;BME280;3946;48.958;8.284;2023-04-21T05:38:17;100172.81;;;2.74;100.00
163;BME280;3946;48.958;8.284;2023-04-21T05:41:02;100175.19;;;2.79;100.00
163;BME280;3946;48.958;8.284;2023-04-21T05:43:47;100176.50;;;2.91;100.00
163;BME280;3946;48.958;8.284;2023-04-21T05:46:33;100175.91;;;2.83;100.00
163;BME280;3946;48.958;8.284;2023-04-21T05:49:18;100169.66;;;2.91;100.00
163;BME280;3946;48.958;8.284;2023-04-21T05:52:03;100182.56;;;2.88;100.00
163;BME280;3946;48.958;8.284;2023-04-21T05:54:48;100180.50;;;2.98;100.00
163;BME280;3946;48.958;8.284;2023-04-21T05:57:33;100190.53;;;3.04;100.00
163;BME280;3946;48.958;8.284;2023-04-21T06:00:18;100198.41;;;2.98;100.00
163;BME280;3946;48.958;8.284;2023-04-21T06:03:05;100194.41;;;3.14;100.00
163;BME280;3946;48.958;8.284;2023-04-21T06:05:52;100196.19;;;3.12;100.00
163;BME280;3946;48.958;8.284;2023-04-21T06:08:37;100190.22;;;3.11;100.00
163;BME280;3946;48.958;8.284;2023-04-21T06:11:22;100186.59;;;2.94;100.00
163;BME280;3946;48.958;8.284;2023-04-21T06:14:07;100190.13;;;2.91;100.00
163;BME280;3946;48.958;8.284;2023-04-21T06:16:52;100194.72;;;3.06;100.00
163;BME280;3946;48.958;8.284;2023-04-21T06:19:38;100185.94;;;3.59;100.00
163;BME280;3946;48.958;8.284;2023-04-21T06:22:23;100184.88;;;4.08;100.00
163;BME280;3946;48.958;8.284;2023-04-21T06:25:08;100185.03;;;4.25;100.00
163;BME280;3946;48.958;8.284;2023-04-21T06:27:54;100180.06;;;4.63;100.00
163;BME280;3946;48.958;8.284;2023-04-21T06:30:39;100172.28;;;4.84;100.00
163;BME280;3946;48.958;8.284;2023-04-21T06:33:24;100164.16;;;5.14;100.00
163;BME280;3946;48.958;8.284;2023-04-21T06:36:11;100153.69;;;5.18;100.00
163;BME280;3946;48.958;8.284;2023-04-21T06:38:55;100144.16;;;5.39;100.00
163;BME280;3946;48.958;8.284;2023-04-21T06:41:40;100144.00;;;5.61;100.00
163;BME280;3946;48.958;8.284;2023-04-21T06:44:25;100147.91;;;5.87;100.00
163;BME280;3946;48.958;8.284;2023-04-21T06:47:11;100140.16;;;5.88;100.00
163;BME280;3946;48.958;8.284;2023-04-21T06:49:56;100131.31;;;5.94;100.00
163;BME280;3946;48.958;8.284;2023-04-21T06:52:42;100129.88;;;6.23;100.00
163;BME280;3946;48.958;8.284;2023-04-21T06:55:27;100125.41;;;6.61;100.00
163;BME280;3946;48.958;8.284;2023-04-21T06:58:12;100118.81;;;6.88;100.00
163;BME280;3946;48.958;8.284;2023-04-21T07:00:58;100115.69;;;7.15;100.00
163;BME280;3946;48.958;8.284;2023-04-21T07:03:44;100108.31;;;7.24;100.00
163;BME280;3946;48.958;8.284;2023-04-21T07:06:29;100108.72;;;7.48;100.00
163;BME280;3946;48.958;8.284;2023-04-21T07:09:16;100103.56;;;7.48;100.00
163;BME280;3946;48.958;8.284;2023-04-21T07:12:01;100115.91;;;7.89;100.00
163;BME280;3946;48.958;8.284;2023-04-21T07:14:46;100103.28;;;8.14;97.78
163;BME280;3946;48.958;8.284;2023-04-21T07:17:31;100101.00;;;8.24;96.50
163;BME280;3946;48.958;8.284;2023-04-21T07:20:16;100098.66;;;8.35;96.00
163;BME280;3946;48.958;8.284;2023-04-21T07:23:01;100103.66;;;8.66;94.76
163;BME280;3946;48.958;8.284;2023-04-21T07:25:47;100095.38;;;8.75;93.14
163;BME280;3946;48.958;8.284;2023-04-21T07:28:32;100087.13;;;8.97;91.56
163;BME280;3946;48.958;8.284;2023-04-21T07:31:17;100090.53;;;9.12;91.69
163;BME280;3946;48.958;8.284;2023-04-21T07:34:02;100082.69;;;9.13;90.69
163;BME280;3946;48.958;8.284;2023-04-21T07:36:48;100078.81;;;9.21;89.79
163;BME280;3946;48.958;8.284;2023-04-21T07:39:33;100063.19;;;9.49;88.81
163;BME280;3946;48.958;8.284;2023-04-21T07:42:20;100069.56;;;9.58;87.36
163;BME280;3946;48.958;8.284;2023-04-21T07:45:05;100063.50;;;9.71;86.93
163;BME280;3946;48.958;8.284;2023-04-21T07:47:50;100045.03;;;9.90;84.64
163;BME280;3946;48.958;8.284;2023-04-21T07:50:35;100053.91;;;9.99;84.98
163;BME280;3946;48.958;8.284;2023-04-21T07:53:20;100055.31;;;10.42;84.32
163;BME280;3946;48.958;8.284;2023-04-21T07:56:05;100044.56;;;10.48;82.28
163;BME280;3946;48.958;8.284;2023-04-21T07:58:52;100049.75;;;10.36;83.33
163;BME280;3946;48.958;8.284;2023-04-21T08:01:37;100047.22;;;10.60;83.16
163;BME280;3946;48.958;8.284;2023-04-21T08:04:21;100044.97;;;10.68;82.88
163;BME280;3946;48.958;8.284;2023-04-21T08:07:06;100050.03;;;11.06;83.30
163;BME280;3946;48.958;8.284;2023-04-21T08:09:52;100044.25;;;11.02;83.37
163;BME280;3946;48.958;8.284;2023-04-21T08:12:37;100049.25;;;11.29;85.01
163;BME280;3946;48.958;8.284;2023-04-21T08:15:24;100038.81;;;11.66;84.49
163;BME280;3946;48.958;8.284;2023-04-21T08:18:09;100018.81;;;11.79;82.05
163;BME280;3946;48.958;8.284;2023-04-21T08:20:54;100022.88;;;11.94;81.43
163;BME280;3946;48.958;8.284;2023-04-21T08:23:40;100008.41;;;12.14;79.60
163;BME280;3946;48.958;8.284;2023-04-21T08:26:25;100011.69;;;12.05;81.03
163;BME280;3946;48.958;8.284;2023-04-21T08:29:12;100019.03;;;12.22;81.57
163;BME280;3946;48.958;8.284;2023-04-21T08:31:58;100002.28;;;12.48;80.99
163;BME280;3946;48.958;8.284;2023-04-21T08:34:43;99998.88;;;12.48;80.64
163;BME280;3946;48.958;8.284;2023-04-21T08:37:29;99922.81;;;12.89;75.27
163;BME280;3946;48.958;8.284;2023-04-21T08:40:14;99912.75;;;12.95;72.92
163;BME280;3946;48.958;8.284;2023-04-21T08:42:58;99896.63;;;13.13;71.92
163;BME280;3946;48.958;8.284;2023-04-21T08:45:43;99899.66;;;13.29;71.14
163;BME280;3946;48.958;8.284;2023-04-21T08:48:30;99893.81;;;13.57;70.45
163;BME280;3946;48.958;8.284;2023-04-21T08:51:19;99896.69;;;13.64;70.28
163;BME280;3946;48.958;8.284;2023-04-21T08:54:05;99881.75;;;13.87;69.18
163;BME280;3946;48.958;8.284;2023-04-21T08:56:50;99888.13;;;13.52;69.28
163;BME280;3946;48.958;8.284;2023-04-21T08:59:36;99901.09;;;13.63;69.53
163;BME280;3946;48.958;8.284;2023-04-21T09:02:21;99896.31;;;13.99;69.56
163;BME280;3946;48.958;8.284;2023-04-21T09:05:07;99876.66;;;14.16;68.85
163;BME280;3946;48.958;8.284;2023-04-21T09:07:53;99844.28;;;14.09;68.03
163;BME280;3946;48.958;8.284;2023-04-21T09:10:51;99849.13;;;14.23;67.28
163;BME280;3946;48.958;8.284;2023-04-21T09:13:37;99875.16;;;13.83;68.67
163;BME280;3946;48.958;8.284;2023-04-21T09:16:21;99883.09;;;14.12;69.73
163;BME280;3946;48.958;8.284;2023-04-21T09:19:12;99861.84;;;14.16;68.76
163;BME280;3946;48.958;8.284;2023-04-21T09:21:59;99851.94;;;14.50;68.20
163;BME280;3946;48.958;8.284;2023-04-21T09:24:44;99821.66;;;14.59;66.82
163;BME280;3946;48.958;8.284;2023-04-21T09:27:30;99827.13;;;14.56;66.53
163;BME280;3946;48.958;8.284;2023-04-21T09:30:17;99806.13;;;14.77;65.75
163;BME280;3946;48.958;8.284;2023-04-21T09:33:03;99804.75;;;14.63;65.81
163;BME280;3946;48.958;8.284;2023-04-21T09:35:48;99814.50;;;14.80;66.01
163;BME280;3946;48.958;8.284;2023-04-21T09:38:34;99808.88;;;14.75;65.74
163;BME280;3946;48.958;8.284;2023-04-21T09:41:19;99802.91;;;15.12;65.40
163;BME280;3946;48.958;8.284;2023-04-21T09:44:05;99779.97;;;15.15;64.25
163;BME280;3946;48.958;8.284;2023-04-21T09:46:52;99806.22;;;15.23;65.42
163;BME280;3946;48.958;8.284;2023-04-21T09:49:38;99802.09;;;15.11;65.64
163;BME280;3946;48.958;8.284;2023-04-21T09:52:27;99801.94;;;15.32;65.25
163;BME280;3946;48.958;8.284;2023-04-21T09:55:13;99853.44;;;15.30;66.70
163;BME280;3946;48.958;8.284;2023-04-21T09:57:59;99787.34;;;15.39;64.68
163;BME280;3946;48.958;8.284;2023-04-21T10:00:44;99804.22;;;15.45;65.37
163;BME280;3946;48.958;8.284;2023-04-21T10:03:30;99817.97;;;15.47;65.31
163;BME280;3946;48.958;8.284;2023-04-21T10:06:15;99814.28;;;15.86;65.74
163;BME280;3946;48.958;8.284;2023-04-21T10:09:00;99763.81;;;15.86;63.79
163;BME280;3946;48.958;8.284;2023-04-21T10:11:50;99766.50;;;15.94;63.91
163;BME280;3946;48.958;8.284;2023-04-21T10:14:35;99759.75;;;16.19;63.54
163;BME280;3946;48.958;8.284;2023-04-21T10:17:21;99729.44;;;16.43;62.35
163;BME280;3946;48.958;8.284;2023-04-21T10:20:06;99712.47;;;16.12;61.62
163;BME280;3946;48.958;8.284;2023-04-21T10:22:55;99732.81;;;16.18;62.35
163;BME280;3946;48.958;8.284;2023-04-21T10:25:41;99764.25;;;16.44;64.17
163;BME280;3946;48.958;8.284;2023-04-21T10:28:39;99709.13;;;16.20;61.81
163;BME280;3946;48.958;8.284;2023-04-21T10:31:28;99725.41;;;16.31;62.28
163;BME280;3946;48.958;8.284;2023-04-21T10:34:14;99691.81;;;16.19;61.17
163;BME280;3946;48.958;8.284;2023-04-21T10:37:12;99694.19;;;16.30;60.87
163;BME280;3946;48.958;8.284;2023-04-21T10:39:58;99717.13;;;16.71;61.97
163;BME280;3946;48.958;8.284;2023-04-21T10:42:43;99679.94;;;16.86;60.33
163;BME280;3946;48.958;8.284;2023-04-21T10:45:30;99690.66;;;17.08;60.36
163;BME280;3946;48.958;8.284;2023-04-21T10:48:15;99686.84;;;17.29;60.86
163;BME280;3946;48.958;8.284;2023-04-21T10:51:05;99688.41;;;17.47;60.97
163;BME280;3946;48.958;8.284;2023-04-21T10:53:50;99645.53;;;17.48;59.30
163;BME280;3946;48.958;8.284;2023-04-21T10:56:35;99644.88;;;17.55;59.34
163;BME280;3946;48.958;8.284;2023-04-21T10:59:20;99671.06;;;17.55;60.27
163;BME280;3946;48.958;8.284;2023-04-21T11:02:09;99616.81;;;17.81;58.26
163;BME280;3946;48.958;8.284;2023-04-21T11:04:54;99635.66;;;17.85;58.53
163;BME280;3946;48.958;8.284;2023-04-21T11:07:39;99617.69;;;17.47;58.37
163;BME280;3946;48.958;8.284;2023-04-21T11:10:24;99628.94;;;17.82;58.91
163;BME280;3946;48.958;8.284;2023-04-21T11:13:09;99616.47;;;17.84;58.62
163;BME280;3946;48.958;8.284;2023-04-21T11:15:58;99594.03;;;17.90;57.52
163;BME280;3946;48.958;8.284;2023-04-21T11:18:45;99607.97;;;18.14;58.17
163;BME280;3946;48.958;8.284;2023-04-21T11:21:30;99577.50;;;17.97;56.99
163;BME280;3946;48.958;8.284;2023-04-21T11:24:16;99558.00;;;18.16;56.27
163;BME280;3946;48.958;8.284;2023-04-21T11:27:01;99567.78;;;18.46;56.13
163;BME280;3946;48.958;8.284;2023-04-21T11:29:46;99524.47;;;18.59;54.61
163;BME280;3946;48.958;8.284;2023-04-21T11:32:31;99586.13;;;18.46;56.57
163;BME280;3946;48.958;8.284;2023-04-21T11:35:18;99613.75;;;18.90;57.47
163;BME280;3946;48.958;8.284;2023-04-21T11:38:03;99600.25;;;19.09;57.01
163;BME280;3946;48.958;8.284;2023-04-21T11:40:48;99583.06;;;18.90;56.28
163;BME280;3946;48.958;8.284;2023-04-21T11:43:34;99589.53;;;18.79;56.88
163;BME280;3946;48.958;8.284;2023-04-21T11:46:22;99578.06;;;18.56;56.14
163;BME280;3946;48.958;8.284;2023-04-21T11:49:09;99564.16;;;18.64;55.86
163;BME280;3946;48.958;8.284;2023-04-21T11:51:56;99564.94;;;18.56;56.03
163;BME280;3946;48.958;8.284;2023-04-21T11:54:41;99558.09;;;18.63;56.38
163;BME280;3946;48.958;8.284;2023-04-21T11:57:26;99575.47;;;18.48;56.89
163;BME280;3946;48.958;8.284;2023-04-21T12:00:12;99571.66;;;18.75;56.63
163;BME280;3946;48.958;8.284;2023-04-21T12:02:58;99538.53;;;19.05;55.36
163;BME280;3946;48.958;8.284;2023-04-21T12:05:43;99493.97;;;18.97;53.80
163;BME280;3946;48.958;8.284;2023-04-21T12:08:30;99482.66;;;18.88;53.46
163;BME280;3946;48.958;8.284;2023-04-21T12:11:15;99528.75;;;18.91;55.08
163;BME280;3946;48.958;8.284;2023-04-21T12:14:00;99523.28;;;18.69;54.95
163;BME280;3946;48.958;8.284;2023-04-21T12:16:47;99534.06;;;18.82;55.40
163;BME280;3946;48.958;8.284;2023-04-21T12:19:36;99543.97;;;19.03;55.67
163;BME280;3946;48.958;8.284;2023-04-21T12:22:22;99525.16;;;19.22;54.57
163;BME280;3946;48.958;8.284;2023-04-21T12:25:09;99548.56;;;19.01;55.60
163;BME280;3946;48.958;8.284;2023-04-21T12:27:56;99559.53;;;19.13;55.82
163;BME280;3946;48.958;8.284;2023-04-21T12:30:41;99534.44;;;19.33;54.89
163;BME280;3946;48.958;8.284;2023-04-21T12:33:27;99543.13;;;19.65;54.55
163;BME280;3946;48.958;8.284;2023-04-21T12:36:11;99496.13;;;19.16;53.72
163;BME280;3946;48.958;8.284;2023-04-21T12:38:58;99497.81;;;19.63;53.66
163;BME280;3946;48.958;8.284;2023-04-21T12:41:45;99484.91;;;19.53;53.15
163;BME280;3946;48.958;8.284;2023-04-21T12:44:31;99504.34;;;19.44;53.63
163;BME280;3946;48.958;8.284;2023-04-21T12:47:16;99496.56;;;19.28;53.61
163;BME280;3946;48.958;8.284;2023-04-21T12:50:01;99511.25;;;18.83;54.46
163;BME280;3946;48.958;8.284;2023-04-21T12:52:46;99517.34;;;19.14;54.70
163;BME280;3946;48.958;8.284;2023-04-21T12:55:34;99498.00;;;19.61;54.07
163;BME280;3946;48.958;8.284;2023-04-21T12:58:21;99487.75;;;19.66;53.47
163;BME280;3946;48.958;8.284;2023-04-21T13:01:06;99498.59;;;19.40;54.10
163;BME280;3946;48.958;8.284;2023-04-21T13:03:51;99533.19;;;18.90;55.35
163;BME280;3946;48.958;8.284;2023-04-21T13:06:37;99551.38;;;19.62;55.93
163;BME280;3946;48.958;8.284;2023-04-21T13:09:22;99500.38;;;19.71;53.89
163;BME280;3946;48.958;8.284;2023-04-21T13:12:07;99512.22;;;19.44;54.57
163;BME280;3946;48.958;8.284;2023-04-21T13:14:53;99513.00;;;19.52;54.34
163;BME280;3946;48.958;8.284;2023-04-21T13:17:38;99495.31;;;19.38;53.94
163;BME280;3946;48.958;8.284;2023-04-21T13:20:24;99488.13;;;19.63;54.01
163;BME280;3946;48.958;8.284;2023-04-21T13:23:08;99498.06;;;19.90;53.70
163;BME280;3946;48.958;8.284;2023-04-21T13:25:55;99497.16;;;19.98;54.04
163;BME280;3946;48.958;8.284;2023-04-21T13:28:40;99541.91;;;19.75;55.66
163;BME280;3946;48.958;8.284;2023-04-21T13:31:27;99505.88;;;20.13;54.84
163;BME280;3946;48.958;8.284;2023-04-21T13:34:12;99481.00;;;19.86;54.00
163;BME280;3946;48.958;8.284;2023-04-21T13:36:57;99487.59;;;19.82;54.54
163;BME280;3946;48.958;8.284;2023-04-21T13:39:42;99506.13;;;19.89;55.28
163;BME280;3946;48.958;8.284;2023-04-21T13:42:27;99499.38;;;20.24;55.15
163;BME280;3946;48.958;8.284;2023-04-21T13:45:12;99456.66;;;20.51;53.59
163;BME280;3946;48.958;8.284;2023-04-21T13:47:58;99483.00;;;19.99;54.49
163;BME280;3946;48.958;8.284;2023-04-21T13:50:43;99489.81;;;19.56;55.28
163;BME280;3946;48.958;8.284;2023-04-21T13:53:28;99507.47;;;19.85;55.77
163;BME280;3946;48.958;8.284;2023-04-21T13:56:13;99493.53;;;19.99;55.13
163;BME280;3946;48.958;8.284;2023-04-21T13:58:58;99494.44;;;19.91;55.19
163;BME280;3946;48.958;8.284;2023-04-21T14:01:43;99496.91;;;20.08;55.42
163;BME280;3946;48.958;8.284;2023-04-21T14:04:30;99486.94;;;20.33;54.91
163;BME280;3946;48.958;8.284;2023-04-21T14:07:15;99472.72;;;20.12;55.12
163;BME280;3946;48.958;8.284;2023-04-21T14:10:02;99477.97;;;20.27;55.39
163;BME280;3946;48.958;8.284;2023-04-21T14:12:47;99459.91;;;20.09;54.99
163;BME280;3946;48.958;8.284;2023-04-21T14:15:33;99465.38;;;20.52;55.19
163;BME280;3946;48.958;8.284;2023-04-21T14:18:17;99431.84;;;20.75;54.13
163;BME280;3946;48.958;8.284;2023-04-21T14:21:04;99446.00;;;20.15;54.89
163;BME280;3946;48.958;8.284;2023-04-21T14:23:49;99442.41;;;20.46;54.51
163;BME280;3946;48.958;8.284;2023-04-21T14:26:34;99442.59;;;20.44;54.79
163;BME280;3946;48.958;8.284;2023-04-21T14:29:20;99440.22;;;20.35;55.17
163;BME280;3946;48.958;8.284;2023-04-21T14:32:05;99447.47;;;20.33;55.09
163;BME280;3946;48.958;8.284;2023-04-21T14:34:50;99434.09;;;20.64;54.70
163;BME280;3946;48.958;8.284;2023-04-21T14:37:38;99429.50;;;20.51;55.05
163;BME280;3946;48.958;8.284;2023-04-21T14:40:23;99455.38;;;20.47;55.29
163;BME280;3946;48.958;8.284;2023-04-21T14:43:08;99466.63;;;20.12;55.63
163;BME280;3946;48.958;8.284;2023-04-21T14:45:53;99451.84;;;20.55;54.80
163;BME280;3946;48.958;8.284;2023-04-21T14:48:38;99454.28;;;20.56;54.99
163;BME280;3946;48.958;8.284;2023-04-21T14:51:25;99456.16;;;20.63;55.02
163;BME280;3946;48.958;8.284;2023-04-21T14:54:11;99506.25;;;20.10;56.55
163;BME280;3946;48.958;8.284;2023-04-21T14:56:56;99578.75;;;19.90;59.83
163;BME280;3946;48.958;8.284;2023-04-21T14:59:43;99664.81;;;19.34;63.51
163;BME280;3946;48.958;8.284;2023-04-21T15:02:29;99741.75;;;18.71;67.60
163;BME280;3946;48.958;8.284;2023-04-21T15:05:14;99707.09;;;17.53;72.18
163;BME280;3946;48.958;8.284;2023-04-21T15:07:59;99652.03;;;16.51;69.25